Fox Island, WA

5:24 PM PST on December 24, 2014 (GMT -0800)
Tacoma Narrows | Change Station
CLOSE
Current Station
Airport
Location: Tacoma Narrows,
Elevation: 292 ft
Nearby Weather Stations

Elev 292 ft 47.27 °N, 122.58 °W | Updated 31 minutes ago

Overcast
Overcast
44 °F
Feels Like 42 °F
N
4
Wind Variable Wind from ENE

Today
High -- | Low -- °F
--% Chance of Precip.
Yesterday
High -- | Low -- °F
Precip. -- in
7:55 AM 4:24 PM
Waxing Crescent, 12% visible
Pressure 29.96 in
Visibility 10.0 miles
Clouds Scattered Clouds 2300 ft
Overcast 3800 ft
Windchill 42 °F
Dew Point 38 °F
Humidity 79%
Rainfall 0.10 in
Snow Depth Not available.
UV 0 out of 12
Pollen .50 out of 12
Air Quality Not available.
Flu Activity Not available.
METAR KTIW 250053Z 07003KT 10SM SCT023 OVC038 07/03 A2995 RMK AO2 SLP146 T00670033

More Conditions Fewer Conditions

Pressure 29.96 in
Visibility 10.0 miles
Clouds Scattered Clouds 2300 ft
Overcast 3800 ft
Windchill 42 °F
Dew Point 38 °F
Humidity 79%
Rainfall 0.10 in
Snow Depth Not available.
UV 0 out of 12
Pollen .50 out of 12
Air Quality Not available.
Flu Activity Not available.
METAR KTIW 250053Z 07003KT 10SM SCT023 OVC038 07/03 A2995 RMK AO2 SLP146 T00670033

More Conditions Fewer Conditions

10-Day Weather Forecast

Almanac

Astronomy

Dec. 24, 2014 Rise Set
Actual Time
Civil Twilight
Nautical Twilight
Astronomical Twilight
Moon
Length of Visible Light
Length of Day
Tomorrow will be .
, % of the Moon is Illuminated

Today's Extremes

State Highs State Lows

Community

WunderPhotos

Upload Photos

1,780,203 photos uploaded!

WunderBlogs® & News

Nearby

Air Quality

  Air Quality AQ Index Pollutant
Not available.

Snow Depth

Station Depth Elevation

Earthquake Activity

City Distance Mag. Time & Date
Minimum magnitude displayed is 2.5.

Coastal Water Temperatures

Place Temperature

Nearby Weather Stations